createdAt,value
2022-08-05T03:38:33.310Z,78.51
2022-08-05T03:41:46.670Z,78.51
2022-08-05T03:44:49.502Z,82.29
2022-08-05T03:47:56.827Z,82.88
2022-08-05T03:52:35.126Z,79.52
2022-08-05T03:56:04.122Z,78.66
2022-08-05T03:58:19.324Z,78.52
2022-08-05T04:01:23.934Z,77.93
2022-08-05T04:04:30.752Z,77.41
2022-08-05T04:07:34.436Z,76.18
2022-08-05T04:10:58.653Z,76.78
2022-08-05T04:14:01.698Z,76.90
2022-08-05T04:17:04.981Z,76.29
2022-08-05T04:20:18.080Z,76.69
2022-08-05T04:24:05.597Z,76.54
2022-08-05T04:26:50.612Z,75.15
2022-08-05T04:29:53.918Z,74.39
2022-08-05T04:32:56.571Z,74.61
2022-08-05T04:36:15.551Z,74.21
2022-08-05T04:39:21.880Z,73.07
2022-08-05T04:42:27.833Z,71.17
2022-08-05T04:45:47.854Z,69.47
2022-08-05T04:48:52.017Z,67.93
2022-08-05T04:52:00.171Z,67.66
2022-08-05T04:55:14.234Z,66.15
2022-08-05T04:58:21.590Z,65.78
2022-08-05T05:02:05.471Z,65.18
2022-08-05T05:04:49.754Z,65.10
2022-08-05T05:07:56.383Z,65.14
2022-08-05T05:11:03.951Z,63.93
2022-08-05T05:14:08.727Z,61.21
2022-08-05T05:17:23.882Z,61.19
2022-08-05T05:20:28.542Z,60.41
2022-08-05T05:24:02.310Z,59.37
2022-08-05T05:26:54.583Z,57.64
2022-08-05T05:30:04.624Z,56.45
2022-08-05T05:33:16.092Z,54.52
2022-08-05T05:36:19.366Z,55.57
2022-08-05T05:39:22.611Z,53.77
2022-08-05T05:42:26.364Z,53.06
2022-08-05T05:45:29.760Z,53.75
2022-08-05T05:48:32.409Z,51.99
2022-08-05T05:51:50.664Z,52.33
2022-08-05T05:54:53.464Z,52.61
2022-08-05T05:57:56.307Z,51.06
2022-08-05T06:01:13.226Z,51.23
2022-08-05T06:04:18.495Z,51.28
2022-08-05T06:07:41.221Z,49.54
2022-08-05T06:10:49.223Z,50.65
2022-08-05T06:13:58.078Z,48.91
2022-08-05T06:17:22.655Z,47.97
2022-08-05T06:20:25.977Z,49.15
2022-08-05T06:23:43.989Z,48.06
2022-08-05T06:26:52.094Z,47.04
2022-08-05T06:30:04.254Z,45.90
2022-08-05T06:33:10.722Z,46.05
2022-08-05T06:36:13.725Z,43.81
2022-08-05T06:39:18.825Z,43.78
2022-08-05T06:42:25.322Z,42.83
2022-08-05T06:45:44.692Z,42.55
2022-08-05T06:48:58.793Z,42.13
2022-08-05T06:52:01.984Z,41.80
2022-08-05T06:55:05.829Z,41.20
2022-08-05T06:58:29.645Z,41.16
2022-08-05T07:01:33.154Z,40.15
2022-08-05T07:04:36.447Z,38.55
2022-08-05T07:07:43.814Z,38.65
2022-08-05T07:10:53.034Z,38.26
2022-08-05T07:14:20.793Z,38.52
2022-08-05T07:18:01.237Z,37.03
2022-08-05T07:20:55.981Z,36.50
2022-08-05T07:23:58.799Z,36.34
2022-08-05T07:27:04.560Z,36.23
2022-08-05T07:30:27.677Z,35.64
2022-08-05T07:33:36.501Z,36.13
2022-08-05T07:36:40.017Z,35.74
2022-08-05T07:40:27.082Z,35.69
2022-08-05T07:43:14.543Z,35.66
2022-08-05T07:46:29.510Z,33.97
2022-08-05T07:49:33.672Z,33.35
2022-08-05T07:52:46.709Z,32.79
2022-08-05T07:56:05.305Z,34.02
2022-08-05T07:59:13.176Z,32.68
2022-08-05T08:02:17.914Z,32.15
2022-08-05T08:05:21.144Z,33.36
2022-08-05T08:08:24.331Z,31.49
2022-08-05T08:11:47.824Z,31.20
2022-08-05T08:14:52.776Z,32.44
2022-08-05T08:17:55.671Z,32.09
2022-08-05T08:21:09.721Z,30.47
2022-08-05T08:24:20.423Z,32.35
2022-08-05T08:27:45.030Z,31.67
2022-08-05T08:30:50.686Z,31.43
2022-08-05T08:33:53.539Z,30.68
2022-08-05T08:37:03.150Z,31.67
2022-08-05T08:40:08.063Z,31.42
2022-08-05T08:44:56.485Z,28.85
2022-08-05T08:46:36.053Z,29.82
2022-08-05T08:50:23.369Z,29.81
2022-08-05T08:53:12.145Z,29.66
2022-08-05T08:56:16.509Z,30.46
2022-08-05T08:59:21.311Z,28.92
2022-08-05T09:02:25.536Z,30.64
2022-08-05T09:05:38.631Z,29.86
2022-08-05T09:08:52.585Z,29.53
2022-08-05T09:12:01.222Z,29.66
2022-08-05T09:15:12.207Z,28.99
2022-08-05T09:18:17.732Z,29.34
2022-08-05T09:22:17.761Z,27.49
2022-08-05T09:24:58.193Z,30.03
2022-08-05T09:28:21.228Z,28.33
2022-08-05T09:32:41.064Z,27.01
2022-08-05T09:34:52.647Z,28.31
2022-08-05T09:38:16.648Z,27.27
2022-08-05T09:41:19.783Z,27.30
2022-08-05T09:44:40.272Z,27.28
2022-08-05T09:47:55.227Z,27.67
2022-08-05T09:51:14.814Z,26.17
2022-08-05T09:54:31.022Z,30.88
2022-08-05T09:57:35.359Z,26.15
2022-08-05T10:00:53.769Z,27.23
2022-08-05T10:04:00.399Z,28.11
2022-08-05T10:07:19.632Z,27.86
2022-08-05T10:10:37.827Z,27.42
2022-08-05T10:13:47.144Z,26.73
2022-08-05T10:16:53.337Z,28.79
2022-08-05T10:20:03.795Z,25.14
2022-08-05T10:23:34.516Z,25.50
2022-08-05T10:26:51.415Z,26.57
2022-08-05T10:31:21.102Z,27.25
2022-08-05T10:33:18.054Z,24.86
2022-08-05T10:36:23.684Z,26.85
2022-08-05T10:40:03.888Z,26.66
2022-08-05T10:43:07.334Z,25.83
2022-08-05T10:46:18.589Z,24.88
2022-08-05T10:49:33.364Z,23.90
2022-08-05T10:52:58.512Z,25.12
2022-08-05T10:56:21.177Z,25.56
2022-08-05T11:00:02.874Z,22.66
2022-08-05T11:02:59.072Z,25.42
2022-08-05T11:06:21.708Z,23.47
2022-08-05T11:09:46.767Z,24.66
2022-08-05T11:12:54.398Z,23.63
2022-08-05T11:16:21.625Z,26.04
2022-08-05T11:20:10.418Z,22.44
2022-08-05T11:22:58.054Z,21.88
2022-08-05T11:26:09.173Z,23.89
2022-08-05T11:29:42.681Z,24.39
2022-08-05T11:32:45.123Z,21.41
2022-08-05T11:36:07.983Z,23.93
2022-08-05T11:39:14.768Z,21.96
2022-08-05T11:42:28.192Z,22.96
2022-08-05T11:46:23.477Z,20.29
2022-08-05T11:48:54.887Z,20.84
2022-08-05T11:51:57.904Z,20.04
2022-08-05T11:55:07.519Z,20.65
2022-08-05T11:58:11.995Z,21.36
2022-08-05T12:01:19.176Z,19.90
2022-08-05T12:04:22.855Z,19.63
2022-08-05T12:08:03.823Z,17.74
2022-08-05T12:11:05.727Z,18.50
2022-08-05T12:14:10.266Z,17.47
2022-08-05T12:18:00.805Z,18.58
2022-08-05T12:20:38.709Z,17.26
2022-08-05T12:23:57.454Z,13.76
2022-08-05T12:27:09.456Z,12.42
2022-08-05T12:30:15.590Z,11.25
2022-08-05T12:33:27.498Z,10.75
2022-08-05T12:36:40.030Z,12.04
2022-08-05T12:39:51.100Z,10.78
2022-08-05T12:42:55.956Z,9.12
2022-08-05T12:45:58.520Z,8.11
2022-08-05T12:49:05.870Z,8.55
2022-08-05T12:52:25.308Z,8.46
2022-08-05T12:55:32.911Z,7.93
2022-08-05T12:58:51.343Z,7.36
2022-08-05T13:02:07.859Z,6.97
2022-08-05T13:05:14.473Z,7.80
2022-08-05T13:08:18.503Z,7.38
2022-08-05T13:11:53.807Z,6.24
2022-08-05T13:15:13.715Z,6.15
2022-08-05T13:18:21.071Z,6.84
2022-08-05T13:21:28.319Z,6.43
2022-08-05T13:24:57.576Z,5.60
2022-08-05T13:28:05.071Z,6.40
2022-08-05T13:31:13.956Z,5.17
2022-08-05T13:34:22.809Z,5.81
2022-08-05T13:37:34.554Z,5.80
2022-08-05T13:40:51.362Z,5.38
2022-08-05T13:43:55.431Z,4.30
2022-08-05T13:47:02.456Z,4.28
2022-08-05T13:50:09.619Z,4.68
2022-08-05T13:53:15.798Z,4.23
2022-08-05T13:56:19.346Z,4.43
2022-08-05T13:59:24.468Z,5.68
2022-08-05T14:02:29.824Z,5.13
2022-08-05T14:06:24.594Z,5.63
2022-08-05T14:08:56.748Z,5.11
2022-08-05T14:12:17.157Z,3.64
2022-08-05T14:16:04.633Z,4.20
2022-08-05T14:18:43.785Z,4.30
2022-08-05T14:22:10.156Z,4.29
2022-08-05T14:25:21.967Z,4.39
2022-08-05T14:28:26.239Z,4.83
2022-08-05T14:31:54.232Z,3.71
2022-08-05T14:34:53.231Z,4.21
2022-08-05T14:37:57.533Z,4.13
2022-08-05T14:41:06.915Z,3.82
2022-08-05T14:44:20.392Z,3.90
2022-08-05T14:47:58.401Z,4.58
2022-08-05T14:50:46.792Z,3.51
2022-08-05T14:54:26.390Z,3.45
2022-08-05T14:57:14.276Z,4.05
2022-08-05T15:00:17.810Z,3.94
2022-08-05T15:03:23.064Z,4.43
2022-08-05T15:06:27.985Z,3.67
2022-08-05T15:09:52.875Z,3.55
2022-08-05T15:13:03.688Z,3.19
